createdAt,value
2019-03-22T00:00:01.834Z,0.00
2019-03-22T00:01:01.823Z,0.00
2019-03-22T00:02:01.821Z,0.00
2019-03-22T00:03:01.839Z,0.00
2019-03-22T00:04:01.810Z,0.00
2019-03-22T00:05:01.809Z,0.00
2019-03-22T00:06:01.809Z,0.00
2019-03-22T00:07:01.788Z,0.00
2019-03-22T00:08:01.789Z,0.00
2019-03-22T00:09:01.777Z,0.00
2019-03-22T00:10:01.780Z,0.00
2019-03-22T00:11:01.776Z,0.00
2019-03-22T00:12:04.214Z,0.00
2019-03-22T00:13:01.762Z,0.00
2019-03-22T00:14:01.751Z,0.00
2019-03-22T00:15:01.746Z,0.00
2019-03-22T00:16:01.738Z,0.00
2019-03-22T00:17:01.741Z,0.00
2019-03-22T00:18:01.730Z,0.00
2019-03-22T00:19:01.754Z,0.00
2019-03-22T00:20:01.725Z,0.00
2019-03-22T00:21:01.715Z,0.00
2019-03-22T00:22:01.704Z,0.00
2019-03-22T00:23:01.696Z,0.00
2019-03-22T00:24:01.694Z,0.00
2019-03-22T00:25:01.694Z,0.00
2019-03-22T00:26:01.690Z,0.00
2019-03-22T00:27:01.691Z,0.00
2019-03-22T00:28:01.668Z,0.00
2019-03-22T00:29:01.666Z,0.00
2019-03-22T00:30:01.663Z,0.00
2019-03-22T00:31:01.651Z,0.00
2019-03-22T00:32:01.649Z,0.00
2019-03-22T00:33:01.645Z,0.00
2019-03-22T00:34:01.635Z,0.00
2019-03-22T00:35:01.634Z,0.00
2019-03-22T00:36:01.626Z,0.00
2019-03-22T00:37:01.619Z,0.00
2019-03-22T00:38:01.613Z,0.00
2019-03-22T00:39:01.609Z,0.00
2019-03-22T00:40:01.602Z,0.00
2019-03-22T00:41:01.600Z,0.00
2019-03-22T00:42:01.588Z,0.00
2019-03-22T00:43:01.586Z,0.00
2019-03-22T00:44:01.603Z,0.00
2019-03-22T00:45:01.569Z,0.00
2019-03-22T00:46:01.568Z,0.00
2019-03-22T00:47:01.559Z,0.00
2019-03-22T00:48:01.554Z,0.00
2019-03-22T00:49:01.558Z,0.00
2019-03-22T00:50:01.541Z,0.00
2019-03-22T00:51:01.540Z,0.00
2019-03-22T00:52:01.533Z,0.00
2019-03-22T00:53:01.532Z,0.00
2019-03-22T00:54:01.530Z,0.00
2019-03-22T00:55:01.516Z,0.00
2019-03-22T00:56:01.507Z,0.00
2019-03-22T00:57:01.503Z,0.00
2019-03-22T00:58:01.499Z,0.00
2019-03-22T00:59:01.529Z,0.00
2019-03-22T01:00:01.488Z,0.00
2019-03-22T01:01:01.483Z,0.00
2019-03-22T01:02:01.473Z,0.00
2019-03-22T01:03:01.466Z,0.00
2019-03-22T01:04:01.467Z,0.00
2019-03-22T01:05:01.456Z,0.00
2019-03-22T01:06:01.451Z,0.00
2019-03-22T01:07:01.442Z,0.00
2019-03-22T01:08:01.439Z,0.00
2019-03-22T01:09:01.429Z,0.00
2019-03-22T01:10:01.428Z,0.00
2019-03-22T01:11:01.417Z,0.00
2019-03-22T01:12:01.436Z,0.00
2019-03-22T01:13:01.405Z,0.00
2019-03-22T01:14:01.399Z,0.00
2019-03-22T01:15:01.396Z,0.00
2019-03-22T01:16:01.386Z,0.00
2019-03-22T01:17:01.429Z,0.00
2019-03-22T01:18:01.382Z,0.00
2019-03-22T01:19:01.371Z,0.00
2019-03-22T01:20:01.381Z,0.00
2019-03-22T01:21:01.363Z,0.00
2019-03-22T01:22:01.353Z,0.00
2019-03-22T01:23:01.345Z,0.00
2019-03-22T01:24:01.350Z,0.00
2019-03-22T01:25:01.335Z,0.00
2019-03-22T01:26:01.328Z,0.00
2019-03-22T01:27:01.332Z,0.00
2019-03-22T01:28:01.358Z,0.00
2019-03-22T01:29:01.308Z,0.00
2019-03-22T01:30:01.314Z,0.00
2019-03-22T01:31:01.300Z,0.00
2019-03-22T01:32:01.293Z,0.00
2019-03-22T01:33:01.288Z,0.00
2019-03-22T01:34:01.284Z,0.00
2019-03-22T01:35:01.279Z,0.00
2019-03-22T01:36:01.271Z,0.00
2019-03-22T01:37:01.262Z,0.00
2019-03-22T01:38:01.257Z,0.00
2019-03-22T01:39:01.293Z,0.00
2019-03-22T01:40:01.247Z,0.00
2019-03-22T01:41:01.269Z,0.00
2019-03-22T01:42:01.237Z,0.00
2019-03-22T01:43:01.228Z,0.00
2019-03-22T01:44:01.222Z,0.00
2019-03-22T01:45:01.248Z,0.00
2019-03-22T01:46:01.212Z,0.00
2019-03-22T01:47:01.231Z,0.00
2019-03-22T01:48:01.229Z,0.00
2019-03-22T01:49:01.191Z,0.00
2019-03-22T01:50:01.187Z,0.00
2019-03-22T01:51:01.199Z,0.00
2019-03-22T01:52:01.182Z,0.00
2019-03-22T01:53:01.169Z,0.00
2019-03-22T01:54:01.162Z,0.00
2019-03-22T01:55:01.158Z,0.00
2019-03-22T01:56:01.152Z,0.00
2019-03-22T01:57:01.144Z,0.00
2019-03-22T01:58:01.139Z,0.00
2019-03-22T01:59:01.132Z,0.00
2019-03-22T02:00:01.125Z,0.00
2019-03-22T02:01:01.119Z,0.00
2019-03-22T02:02:01.115Z,0.00
2019-03-22T02:03:01.122Z,0.00
2019-03-22T02:04:01.106Z,0.00
2019-03-22T02:05:01.120Z,0.00
2019-03-22T02:06:01.092Z,0.00
2019-03-22T02:07:01.089Z,0.00
2019-03-22T02:08:01.107Z,0.00
2019-03-22T02:09:01.075Z,0.00
2019-03-22T02:10:01.069Z,0.00
2019-03-22T02:11:01.059Z,0.00
2019-03-22T02:12:01.059Z,0.00
2019-03-22T02:13:01.080Z,0.00
2019-03-22T02:14:01.042Z,0.00
2019-03-22T02:15:01.036Z,0.00
2019-03-22T02:16:01.036Z,0.00
2019-03-22T02:17:01.024Z,0.00
2019-03-22T02:18:01.021Z,0.00
2019-03-22T02:19:01.012Z,0.00
2019-03-22T02:20:01.007Z,0.00
2019-03-22T02:21:01.020Z,0.00
2019-03-22T02:22:01.004Z,0.00
2019-03-22T02:23:00.987Z,0.00
2019-03-22T02:24:00.982Z,0.00
2019-03-22T02:25:00.977Z,0.00
2019-03-22T02:26:00.971Z,0.00
2019-03-22T02:27:00.964Z,0.00
2019-03-22T02:28:04.474Z,0.00
2019-03-22T02:29:00.954Z,0.00
2019-03-22T02:30:00.946Z,0.00
2019-03-22T02:31:00.942Z,0.00
2019-03-22T02:32:00.943Z,0.00
2019-03-22T02:33:00.928Z,0.00
2019-03-22T02:34:00.921Z,0.00
2019-03-22T02:35:00.914Z,0.00
2019-03-22T02:36:00.906Z,0.00
2019-03-22T02:37:00.906Z,0.00
2019-03-22T02:38:00.898Z,0.00
2019-03-22T02:39:00.925Z,0.00
2019-03-22T02:40:00.888Z,0.00
2019-03-22T02:41:00.886Z,0.00
2019-03-22T02:42:00.890Z,0.00
2019-03-22T02:43:00.865Z,0.00
2019-03-22T02:44:00.860Z,0.00
2019-03-22T02:45:00.858Z,0.00
2019-03-22T02:46:00.849Z,0.00
2019-03-22T02:47:00.843Z,0.00
2019-03-22T02:48:00.836Z,0.00
2019-03-22T02:49:00.834Z,0.00
2019-03-22T02:50:11.681Z,0.00
2019-03-22T02:51:00.815Z,0.00
2019-03-22T02:52:00.812Z,0.00
2019-03-22T02:53:00.822Z,0.00
2019-03-22T02:54:00.796Z,0.00
2019-03-22T02:55:00.790Z,0.00
2019-03-22T02:56:00.930Z,0.00
2019-03-22T02:57:00.798Z,0.00
2019-03-22T02:58:00.826Z,0.00
2019-03-22T02:59:00.766Z,0.00
2019-03-22T03:00:00.760Z,0.00
2019-03-22T03:01:00.794Z,0.00
2019-03-22T03:02:00.754Z,0.00
2019-03-22T03:03:00.760Z,0.00
2019-03-22T03:04:00.735Z,0.00
2019-03-22T03:05:00.729Z,0.00
2019-03-22T03:06:00.729Z,0.00
2019-03-22T03:07:00.726Z,0.00
2019-03-22T03:08:00.733Z,0.00
2019-03-22T03:09:00.711Z,0.00
2019-03-22T03:10:00.698Z,0.00
2019-03-22T03:11:00.707Z,0.00
2019-03-22T03:12:00.690Z,0.00
2019-03-22T03:13:00.692Z,0.00
2019-03-22T03:14:00.687Z,0.00
2019-03-22T03:15:00.700Z,0.00
2019-03-22T03:16:00.671Z,0.00
2019-03-22T03:17:00.664Z,0.00
2019-03-22T03:18:00.655Z,0.00
2019-03-22T03:19:00.728Z,0.00
2019-03-22T03:20:00.642Z,0.00
2019-03-22T03:21:00.637Z,0.00
2019-03-22T03:22:00.649Z,0.00
2019-03-22T03:23:00.642Z,0.00
2019-03-22T03:24:00.618Z,0.00
2019-03-22T03:25:00.608Z,0.00
2019-03-22T03:26:00.603Z,0.00
2019-03-22T03:27:00.596Z,0.00
2019-03-22T03:28:00.591Z,0.00
2019-03-22T03:29:00.589Z,0.00
2019-03-22T03:30:02.348Z,0.00
2019-03-22T03:31:00.592Z,0.00
2019-03-22T03:32:00.578Z,0.00
2019-03-22T03:33:00.575Z,0.00
2019-03-22T03:34:00.563Z,0.00
2019-03-22T03:35:01.123Z,0.00
2019-03-22T03:36:00.548Z,0.00
2019-03-22T03:37:00.537Z,0.00
2019-03-22T03:38:00.535Z,0.00
2019-03-22T03:39:00.563Z,0.00
2019-03-22T03:40:00.582Z,0.00
2019-03-22T03:41:00.518Z,0.00
2019-03-22T03:42:00.554Z,0.00
2019-03-22T03:43:00.531Z,0.00
2019-03-22T03:44:00.493Z,0.00
2019-03-22T03:45:00.686Z,0.00
2019-03-22T03:46:00.478Z,0.00
2019-03-22T03:47:00.472Z,0.00
2019-03-22T03:48:00.479Z,0.00
2019-03-22T03:49:00.462Z,0.00
2019-03-22T03:50:00.504Z,0.00
2019-03-22T03:51:00.448Z,0.00
2019-03-22T03:52:00.449Z,0.00
2019-03-22T03:53:00.439Z,0.00
2019-03-22T03:54:00.433Z,0.00
2019-03-22T03:55:00.568Z,0.00
2019-03-22T03:56:00.420Z,0.00
2019-03-22T03:57:00.415Z,0.00
2019-03-22T03:58:00.415Z,0.00
2019-03-22T03:59:00.408Z,0.00
2019-03-22T04:00:00.498Z,0.00
2019-03-22T04:01:00.406Z,0.00
2019-03-22T04:02:00.408Z,0.00
2019-03-22T04:03:00.415Z,0.00
2019-03-22T04:04:00.402Z,0.00
2019-03-22T04:05:00.488Z,0.00
2019-03-22T04:06:00.353Z,0.00
2019-03-22T04:07:00.427Z,0.00
2019-03-22T04:08:00.372Z,0.00
2019-03-22T04:09:00.367Z,0.00
2019-03-22T04:10:00.621Z,0.00
2019-03-22T04:11:00.363Z,0.00
2019-03-22T04:12:00.341Z,0.00
2019-03-22T04:13:00.381Z,0.00
2019-03-22T04:14:00.313Z,0.00
2019-03-22T04:15:00.483Z,0.00
2019-03-22T04:16:00.296Z,0.00
2019-03-22T04:17:00.287Z,0.00
2019-03-22T04:18:00.282Z,0.00
2019-03-22T04:19:00.278Z,0.00
2019-03-22T04:20:00.482Z,0.00
2019-03-22T04:21:00.311Z,0.00
2019-03-22T04:22:00.263Z,0.00
2019-03-22T04:23:00.292Z,0.00
2019-03-22T04:24:00.247Z,0.00
2019-03-22T04:25:00.530Z,0.00
2019-03-22T04:26:00.235Z,0.00
2019-03-22T04:27:00.231Z,0.00
2019-03-22T04:28:00.223Z,0.00
2019-03-22T04:29:07.174Z,0.00
2019-03-22T04:30:00.461Z,0.00
2019-03-22T04:31:00.197Z,0.00
2019-03-22T04:32:00.205Z,0.00
2019-03-22T04:33:00.187Z,0.00
2019-03-22T04:34:00.183Z,0.00
2019-03-22T04:35:00.411Z,0.00
2019-03-22T04:36:00.168Z,0.00
2019-03-22T04:37:00.202Z,0.00
2019-03-22T04:38:00.168Z,0.00
2019-03-22T04:39:00.148Z,0.00
2019-03-22T04:40:00.382Z,0.00
2019-03-22T04:41:00.145Z,0.00
2019-03-22T04:42:00.136Z,0.00
2019-03-22T04:43:00.142Z,0.00
2019-03-22T04:44:00.122Z,0.00
2019-03-22T04:45:00.332Z,0.00
2019-03-22T04:46:00.116Z,0.00
2019-03-22T04:47:00.102Z,0.00
2019-03-22T04:48:00.095Z,0.00
2019-03-22T04:49:00.090Z,0.00
2019-03-22T04:50:00.084Z,4.00
2019-03-22T04:51:00.080Z,4.00
2019-03-22T04:52:00.071Z,0.00
2019-03-22T04:53:00.077Z,0.00
2019-03-22T04:54:00.123Z,4.00
2019-03-22T04:55:00.053Z,4.00
2019-03-22T04:56:01.851Z,4.00
2019-03-22T04:57:00.043Z,4.00
2019-03-22T04:58:00.032Z,4.00
2019-03-22T04:59:00.025Z,8.00
2019-03-22T05:00:00.028Z,8.00
2019-03-22T05:01:00.015Z,8.00
2019-03-22T05:02:00.027Z,12.00
2019-03-22T05:03:00.000Z,12.00
2019-03-22T05:04:00.000Z,16.00
2019-03-22T05:05:00.109Z,16.00
2019-03-22T05:05:59.982Z,20.00
2019-03-22T05:06:59.975Z,24.00
2019-03-22T05:08:00.026Z,24.00
2019-03-22T05:08:59.967Z,28.00
2019-03-22T05:09:59.961Z,32.00
2019-03-22T05:10:59.951Z,36.00
2019-03-22T05:11:59.948Z,40.00
2019-03-22T05:12:59.972Z,44.00
2019-03-22T05:13:59.951Z,48.00
2019-03-22T05:14:59.930Z,56.00
2019-03-22T05:16:07.528Z,60.00
2019-03-22T05:17:53.005Z,68.00
2019-03-22T05:18:54.206Z,76.00
2019-03-22T05:20:45.942Z,92.00
2019-03-22T05:21:45.959Z,96.00
2019-03-22T05:23:39.336Z,112.00
2019-03-22T05:24:39.380Z,120.00
2019-03-22T05:26:33.425Z,132.00
2019-03-22T05:27:32.677Z,144.00
2019-03-22T05:29:30.563Z,168.00
2019-03-22T05:30:26.223Z,176.00
2019-03-22T05:32:19.953Z,200.00
2019-03-22T05:33:20.960Z,216.00
2019-03-22T05:34:21.494Z,224.00
2019-03-22T05:35:20.724Z,236.00
2019-03-22T05:36:20.706Z,252.00
2019-03-22T05:37:20.425Z,268.00
2019-03-22T05:38:20.741Z,280.00
2019-03-22T05:39:21.206Z,296.00
2019-03-22T05:40:20.936Z,312.00
2019-03-22T05:41:23.138Z,324.00
2019-03-22T05:42:20.735Z,340.00
2019-03-22T05:43:19.747Z,360.00
2019-03-22T05:44:19.850Z,380.00
2019-03-22T05:45:21.339Z,396.00
2019-03-22T05:46:21.215Z,412.00
2019-03-22T05:47:20.843Z,432.00
2019-03-22T05:48:20.736Z,452.00
2019-03-22T05:49:19.714Z,464.00
2019-03-22T05:50:21.730Z,488.00
2019-03-22T05:51:21.178Z,508.00
2019-03-22T05:52:20.288Z,524.00
2019-03-22T05:53:20.253Z,544.00
2019-03-22T05:54:19.732Z,564.00
2019-03-22T05:55:19.312Z,584.00
2019-03-22T05:56:19.289Z,608.00
2019-03-22T05:57:19.371Z,628.00
2019-03-22T05:58:19.284Z,648.00
2019-03-22T05:59:19.264Z,664.00
2019-03-22T06:00:19.256Z,684.00
2019-03-22T06:01:19.287Z,708.00
2019-03-22T06:02:19.302Z,724.00
2019-03-22T06:03:19.254Z,744.00
2019-03-22T06:04:19.237Z,764.00
2019-03-22T06:05:19.226Z,788.00
2019-03-22T06:06:19.259Z,808.00
2019-03-22T06:07:19.214Z,832.00
2019-03-22T06:08:20.789Z,852.00
2019-03-22T06:09:20.788Z,876.00
2019-03-22T06:10:19.191Z,896.00
2019-03-22T06:11:19.189Z,916.00
2019-03-22T06:12:19.188Z,944.00
2019-03-22T06:13:19.181Z,972.00
2019-03-22T06:14:19.228Z,1004.00
2019-03-22T06:16:41.411Z,1064.00
2019-03-22T06:17:51.161Z,1096.00
2019-03-22T06:19:34.672Z,1124.00
2019-03-22T06:20:34.239Z,1176.00
2019-03-22T06:22:28.551Z,1232.00
2019-03-22T06:23:28.045Z,1268.00
2019-03-22T06:25:22.030Z,1336.00
2019-03-22T06:26:21.461Z,1372.00
2019-03-22T06:28:14.887Z,1440.00
2019-03-22T06:29:14.833Z,1472.00
2019-03-22T06:31:07.236Z,1524.00
2019-03-22T06:32:08.750Z,1556.00
2019-03-22T06:34:00.058Z,1604.00
2019-03-22T06:35:01.080Z,1660.00
2019-03-22T06:36:53.955Z,1776.00
2019-03-22T06:37:52.860Z,1800.00
2019-03-22T06:39:45.724Z,1844.00
2019-03-22T06:40:45.732Z,1960.00
2019-03-22T06:42:39.171Z,2060.00
2019-03-22T06:43:39.134Z,2084.00
2019-03-22T06:45:33.167Z,2168.00
2019-03-22T06:46:32.993Z,2248.00
2019-03-22T06:48:26.862Z,2776.00
2019-03-22T06:49:25.831Z,2932.00
2019-03-22T06:51:19.275Z,2816.00
2019-03-22T06:52:18.757Z,2928.00
2019-03-22T06:54:12.636Z,3732.00
2019-03-22T06:55:12.210Z,3020.00
2019-03-22T06:57:05.639Z,3296.00
2019-03-22T06:58:05.598Z,3424.00
2019-03-22T07:00:05.975Z,3832.00
2019-03-22T07:00:57.518Z,3668.00
2019-03-22T07:02:51.781Z,3384.00
2019-03-22T07:03:51.275Z,3648.00
2019-03-22T07:05:43.691Z,5848.00
2019-03-22T07:06:44.629Z,6112.00
2019-03-22T07:08:37.151Z,6616.00
2019-03-22T07:09:37.522Z,6856.00
2019-03-22T07:11:29.453Z,6700.00
2019-03-22T07:12:29.256Z,5284.00
2019-03-22T07:14:22.938Z,6620.00
2019-03-22T07:15:22.944Z,6956.00
2019-03-22T07:17:16.935Z,7008.00
2019-03-22T07:18:16.892Z,7836.00
2019-03-22T07:20:10.467Z,6732.00
2019-03-22T07:21:10.428Z,7112.00
2019-03-22T07:23:03.742Z,7468.00
2019-03-22T07:24:03.333Z,7588.00
2019-03-22T07:25:56.216Z,7532.00
2019-03-22T07:26:56.663Z,6996.00
2019-03-22T07:28:49.093Z,6512.00
2019-03-22T07:29:49.566Z,7172.00
2019-03-22T07:31:41.947Z,8844.00
2019-03-22T07:32:41.539Z,10052.00
2019-03-22T07:34:34.344Z,10524.00
2019-03-22T07:35:34.863Z,11612.00
2019-03-22T07:37:27.725Z,13392.00
2019-03-22T07:38:28.206Z,11080.00
2019-03-22T07:40:21.115Z,8976.00
2019-03-22T07:41:20.599Z,9020.00
2019-03-22T07:43:14.106Z,11412.00
2019-03-22T07:44:14.551Z,10564.00
2019-03-22T07:46:06.979Z,10404.00
2019-03-22T07:47:06.958Z,12264.00
2019-03-22T07:49:00.356Z,13252.00
2019-03-22T07:49:59.857Z,14144.00
2019-03-22T07:51:52.757Z,15296.00
2019-03-22T07:52:53.272Z,16608.00
2019-03-22T07:54:46.123Z,15968.00
2019-03-22T07:55:45.624Z,15424.00
2019-03-22T07:57:39.513Z,12860.00
2019-03-22T07:58:38.830Z,12940.00
2019-03-22T08:00:32.475Z,14848.00
2019-03-22T08:01:32.389Z,16160.00
2019-03-22T08:03:25.888Z,15264.00
2019-03-22T08:04:26.306Z,15680.00
2019-03-22T08:05:26.284Z,15232.00
2019-03-22T08:06:25.419Z,14144.00
2019-03-22T08:07:34.961Z,13872.00
2019-03-22T08:09:18.863Z,14500.00
2019-03-22T08:10:18.917Z,13368.00
2019-03-22T08:12:13.260Z,14072.00
2019-03-22T08:13:14.234Z,14256.00
2019-03-22T08:15:08.320Z,13604.00
2019-03-22T08:16:06.605Z,14288.00
2019-03-22T08:17:59.485Z,14624.00
2019-03-22T08:18:59.412Z,14944.00
2019-03-22T08:20:52.370Z,15232.00
2019-03-22T08:21:52.390Z,15520.00
2019-03-22T08:23:45.341Z,15552.00
2019-03-22T08:24:45.346Z,13132.00
2019-03-22T08:26:38.136Z,15136.00
2019-03-22T08:27:38.072Z,14432.00
2019-03-22T08:29:32.248Z,14816.00
2019-03-22T08:30:42.542Z,15232.00
2019-03-22T08:32:25.200Z,16544.00
2019-03-22T08:33:25.068Z,15904.00
2019-03-22T08:35:19.058Z,19296.00
2019-03-22T08:36:18.317Z,19328.00
2019-03-22T08:38:12.131Z,22496.00
2019-03-22T08:39:12.089Z,26016.00
2019-03-22T08:41:05.607Z,22496.00
2019-03-22T08:42:05.244Z,22080.00
2019-03-22T08:43:58.446Z,22208.00
2019-03-22T08:44:58.430Z,23552.00
2019-03-22T08:46:51.802Z,27232.00
2019-03-22T08:47:51.313Z,26432.00
2019-03-22T08:49:45.031Z,26624.00
2019-03-22T08:50:43.892Z,24768.00
2019-03-22T08:52:37.254Z,20736.00
2019-03-22T08:53:37.359Z,21568.00
2019-03-22T08:55:30.487Z,20992.00
2019-03-22T08:56:30.040Z,18528.00
2019-03-22T08:58:23.861Z,19136.00
2019-03-22T08:59:23.514Z,19136.00
2019-03-22T09:01:17.251Z,22016.00
2019-03-22T09:02:17.134Z,20512.00
2019-03-22T09:04:10.676Z,20032.00
2019-03-22T09:05:10.348Z,20128.00
2019-03-22T09:07:03.513Z,19744.00
2019-03-22T09:08:03.273Z,18112.00
2019-03-22T09:09:56.426Z,19168.00
2019-03-22T09:10:56.366Z,18976.00
2019-03-22T09:12:49.363Z,20416.00
2019-03-22T09:13:49.254Z,20544.00
2019-03-22T09:15:42.278Z,20192.00
2019-03-22T09:16:42.255Z,20032.00
2019-03-22T09:18:35.089Z,20352.00
2019-03-22T09:19:35.120Z,19840.00
2019-03-22T09:21:28.079Z,18560.00
2019-03-22T09:22:27.974Z,18944.00
2019-03-22T09:24:21.465Z,18880.00
2019-03-22T09:25:21.456Z,19904.00
2019-03-22T09:27:14.879Z,30080.00
2019-03-22T09:28:14.543Z,38816.00
2019-03-22T09:30:07.746Z,35872.00
2019-03-22T09:31:11.024Z,36384.00
2019-03-22T09:33:00.652Z,35904.00
2019-03-22T09:34:00.751Z,36160.00
2019-03-22T09:35:53.665Z,32288.00
2019-03-22T09:36:53.387Z,34048.00
2019-03-22T09:38:46.444Z,34624.00
2019-03-22T09:39:46.179Z,36576.00
2019-03-22T09:41:39.522Z,37152.00
2019-03-22T09:42:39.223Z,39104.00
2019-03-22T09:44:42.898Z,43328.00
2019-03-22T09:45:31.870Z,43680.00
2019-03-22T09:47:25.775Z,43904.00
2019-03-22T09:48:25.737Z,45600.00
2019-03-22T09:50:19.118Z,46080.00
2019-03-22T09:51:19.165Z,46336.00
2019-03-22T09:53:12.011Z,47680.00
2019-03-22T09:54:11.940Z,50528.00
2019-03-22T09:56:05.447Z,50944.00
2019-03-22T09:57:05.370Z,49824.00
2019-03-22T09:58:58.700Z,47584.00
2019-03-22T09:59:58.011Z,46784.00
2019-03-22T10:01:51.315Z,49824.00
2019-03-22T10:02:50.899Z,52256.00
2019-03-22T10:04:44.746Z,48448.00
2019-03-22T10:05:43.982Z,47712.00
2019-03-22T10:07:37.139Z,50272.00
2019-03-22T10:08:36.736Z,51232.00
2019-03-22T10:10:30.006Z,49920.00
2019-03-22T10:11:29.992Z,47872.00
2019-03-22T10:13:23.444Z,11424.00
2019-03-22T10:14:23.852Z,8356.00
2019-03-22T10:16:16.932Z,6572.00
2019-03-22T10:17:16.494Z,6044.00
2019-03-22T10:19:10.348Z,5532.00
2019-03-22T10:20:10.191Z,5432.00
2019-03-22T10:22:03.256Z,5336.00
2019-03-22T10:23:03.305Z,5288.00
2019-03-22T10:24:56.214Z,5204.00
2019-03-22T10:25:56.194Z,5152.00
2019-03-22T10:27:49.055Z,5044.00
2019-03-22T10:28:49.592Z,4992.00
2019-03-22T10:30:44.052Z,4932.00
2019-03-22T10:31:41.992Z,4916.00
2019-03-22T10:32:41.844Z,4904.00
2019-03-22T10:33:41.990Z,4896.00
2019-03-22T10:34:42.495Z,4868.00
2019-03-22T10:35:41.964Z,4860.00
2019-03-22T10:36:42.516Z,4840.00
2019-03-22T10:37:41.968Z,4812.00
2019-03-22T10:38:42.510Z,4784.00
2019-03-22T10:39:42.007Z,4760.00
2019-03-22T10:40:42.593Z,4736.00
2019-03-22T10:41:42.033Z,4732.00
2019-03-22T10:42:42.101Z,4708.00
2019-03-22T10:43:42.069Z,4716.00
2019-03-22T10:44:42.611Z,4700.00
2019-03-22T10:45:42.025Z,4648.00
2019-03-22T10:46:42.153Z,4624.00
2019-03-22T10:47:42.591Z,4600.00
2019-03-22T10:48:42.137Z,4580.00
2019-03-22T10:49:42.514Z,4560.00
2019-03-22T10:50:42.095Z,4536.00
2019-03-22T10:51:55.605Z,4552.00
2019-03-22T10:52:42.087Z,4524.00
2019-03-22T10:53:43.179Z,4500.00
2019-03-22T10:54:42.657Z,4468.00
2019-03-22T10:55:42.604Z,4444.00
2019-03-22T10:56:42.900Z,4428.00
2019-03-22T10:57:42.602Z,4416.00
2019-03-22T10:58:42.131Z,4384.00
2019-03-22T10:59:42.914Z,4356.00
2019-03-22T11:00:42.642Z,4336.00
2019-03-22T11:01:51.963Z,4320.00
2019-03-22T11:02:43.387Z,4256.00
2019-03-22T11:03:42.099Z,4264.00
2019-03-22T11:04:42.173Z,4244.00
2019-03-22T11:05:42.107Z,4208.00
2019-03-22T11:06:42.671Z,4176.00
2019-03-22T11:07:42.189Z,4148.00
2019-03-22T11:08:42.707Z,4104.00
2019-03-22T11:09:42.706Z,4060.00
2019-03-22T11:10:42.728Z,4036.00
2019-03-22T11:11:42.212Z,4004.00
2019-03-22T11:12:43.260Z,4012.00
2019-03-22T11:13:42.750Z,4004.00
2019-03-22T11:14:45.611Z,3972.00
2019-03-22T11:15:48.527Z,3948.00
2019-03-22T11:16:42.113Z,3920.00
2019-03-22T11:17:42.161Z,3904.00
2019-03-22T11:18:42.681Z,3900.00
2019-03-22T11:19:42.251Z,3880.00
2019-03-22T11:20:41.967Z,3840.00
2019-03-22T11:21:41.952Z,3820.00
2019-03-22T11:22:42.260Z,3792.00
2019-03-22T11:23:42.771Z,3768.00
2019-03-22T11:24:42.914Z,3744.00
2019-03-22T11:25:42.798Z,3712.00
2019-03-22T11:26:42.316Z,3688.00
2019-03-22T11:27:42.818Z,3668.00
2019-03-22T11:28:42.960Z,3644.00
2019-03-22T11:29:42.778Z,3624.00
2019-03-22T11:30:43.338Z,3608.00
2019-03-22T11:31:42.254Z,3580.00
2019-03-22T11:32:42.540Z,3552.00
2019-03-22T11:33:42.250Z,3520.00
2019-03-22T11:34:41.862Z,3496.00
2019-03-22T11:35:41.848Z,3492.00
2019-03-22T11:36:41.871Z,3476.00
2019-03-22T11:37:41.852Z,3472.00
2019-03-22T11:38:41.889Z,3448.00
2019-03-22T11:39:41.862Z,3420.00
2019-03-22T11:40:41.875Z,3404.00
2019-03-22T11:41:41.900Z,3404.00
2019-03-22T11:42:41.909Z,3384.00
2019-03-22T11:43:41.889Z,3364.00
2019-03-22T11:44:41.914Z,3336.00
2019-03-22T11:45:41.899Z,3312.00
2019-03-22T11:46:41.904Z,3296.00
2019-03-22T11:47:41.908Z,3292.00
2019-03-22T11:48:41.912Z,3280.00
2019-03-22T11:49:41.920Z,3272.00
2019-03-22T11:50:41.929Z,3264.00
2019-03-22T11:51:41.958Z,3252.00
2019-03-22T11:52:41.950Z,3240.00
2019-03-22T11:53:41.955Z,3228.00
2019-03-22T11:54:41.947Z,3224.00
2019-03-22T11:55:41.973Z,3216.00
2019-03-22T11:56:41.955Z,3200.00
2019-03-22T11:57:41.967Z,3192.00
2019-03-22T11:58:41.978Z,3176.00
2019-03-22T11:59:42.033Z,3172.00
2019-03-22T12:00:41.982Z,3156.00
2019-03-22T12:01:41.980Z,3144.00
2019-03-22T12:02:42.000Z,3132.00
2019-03-22T12:03:41.991Z,3124.00
2019-03-22T12:04:41.998Z,3112.00
2019-03-22T12:05:42.024Z,3112.00
2019-03-22T12:06:42.013Z,3092.00
2019-03-22T12:07:42.015Z,3076.00
2019-03-22T12:08:42.615Z,3052.00
2019-03-22T12:09:43.489Z,3040.00
2019-03-22T12:10:43.492Z,3024.00
2019-03-22T12:11:45.017Z,3012.00
2019-03-22T12:12:43.094Z,3000.00
2019-03-22T12:14:42.354Z,2984.00
2019-03-22T12:15:42.298Z,2968.00
2019-03-22T12:16:44.476Z,2960.00
2019-03-22T12:25:52.863Z,2828.00
2019-03-22T12:28:32.327Z,2796.00
2019-03-22T12:30:32.585Z,2780.00
2019-03-22T12:33:30.788Z,2772.00
2019-03-22T12:35:52.473Z,2744.00
2019-03-22T12:38:45.575Z,2720.00
2019-03-22T12:41:26.204Z,2704.00
2019-03-22T12:42:12.272Z,2692.00
2019-03-22T12:44:05.784Z,2688.00
2019-03-22T12:45:06.229Z,2676.00
2019-03-22T12:46:59.146Z,2664.00
2019-03-22T12:47:58.562Z,2652.00
2019-03-22T12:49:51.479Z,2628.00
2019-03-22T12:50:51.470Z,2620.00
2019-03-22T12:52:45.631Z,2616.00
2019-03-22T12:53:45.100Z,2608.00
2019-03-22T12:54:45.248Z,2608.00
2019-03-22T12:55:48.622Z,2600.00
2019-03-22T12:56:45.817Z,2596.00
2019-03-22T12:57:49.966Z,2588.00
2019-03-22T12:59:31.265Z,2584.00
2019-03-22T12:59:46.918Z,2580.00
2019-03-22T13:00:54.428Z,2572.00
2019-03-22T13:03:05.964Z,2572.00
2019-03-22T13:03:52.500Z,2572.00
2019-03-22T13:04:50.925Z,2568.00
2019-03-22T13:12:41.907Z,2536.00
2019-03-22T13:15:23.849Z,2512.00
2019-03-22T13:18:06.382Z,2496.00
2019-03-22T13:23:56.183Z,2460.00
2019-03-22T13:26:27.935Z,2436.00
2019-03-22T13:28:26.637Z,2400.00
2019-03-22T13:29:20.603Z,2388.00
2019-03-22T13:31:35.370Z,2376.00
2019-03-22T13:32:25.327Z,2380.00
2019-03-22T13:33:22.582Z,2372.00
2019-03-22T13:35:16.842Z,2340.00
2019-03-22T13:37:17.957Z,2332.00
2019-03-22T13:38:24.814Z,2328.00
2019-03-22T13:39:24.232Z,2320.00
2019-03-22T13:44:58.062Z,2288.00
2019-03-22T13:47:08.815Z,2260.00
2019-03-22T13:47:56.856Z,2252.00
2019-03-22T13:51:57.840Z,2220.00
2019-03-22T13:52:57.217Z,2212.00
2019-03-22T13:53:57.588Z,2200.00
2019-03-22T13:54:57.616Z,2216.00
2019-03-22T13:55:54.297Z,2220.00
2019-03-22T13:56:53.813Z,2216.00
2019-03-22T13:57:56.076Z,2204.00
2019-03-22T13:59:05.579Z,2204.00
2019-03-22T13:59:55.851Z,2212.00
2019-03-22T14:00:54.133Z,2224.00
2019-03-22T14:01:56.141Z,2220.00
2019-03-22T14:03:02.094Z,2208.00
2019-03-22T14:03:55.988Z,2196.00
2019-03-22T14:07:55.824Z,2208.00
2019-03-22T14:08:46.456Z,2196.00
2019-03-22T14:11:01.605Z,2196.00
2019-03-22T14:11:39.403Z,2184.00
2019-03-22T14:13:56.474Z,2080.00
2019-03-22T14:16:43.917Z,2072.00
2019-03-22T14:19:36.159Z,2024.00
2019-03-22T14:22:55.621Z,1996.00
2019-03-22T14:27:59.169Z,1960.00
2019-03-22T14:29:49.795Z,1948.00
2019-03-22T14:30:48.282Z,1940.00
2019-03-22T14:32:44.532Z,1920.00
2019-03-22T14:34:59.243Z,1908.00
2019-03-22T14:37:52.382Z,1892.00
2019-03-22T14:38:49.421Z,1880.00
2019-03-22T14:40:45.474Z,1860.00
2019-03-22T14:41:39.579Z,1852.00
2019-03-22T14:43:40.586Z,1828.00
2019-03-22T14:45:58.230Z,1812.00
2019-03-22T14:49:14.664Z,1784.00
2019-03-22T14:49:44.639Z,1776.00
2019-03-22T14:50:42.437Z,1760.00
2019-03-22T14:51:50.296Z,1748.00
2019-03-22T14:52:46.268Z,1724.00
2019-03-22T14:53:40.000Z,1716.00
2019-03-22T14:54:40.264Z,1700.00
2019-03-22T14:55:56.973Z,1704.00
2019-03-22T14:56:41.714Z,1692.00
2019-03-22T14:57:48.969Z,1680.00
2019-03-22T14:58:40.533Z,1656.00
2019-03-22T15:01:58.007Z,1628.00
2019-03-22T15:02:37.101Z,1616.00
2019-03-22T15:04:38.755Z,1588.00
2019-03-22T15:07:28.785Z,1568.00
2019-03-22T15:08:24.473Z,1556.00
2019-03-22T15:10:22.907Z,1540.00
2019-03-22T15:13:15.577Z,1504.00
2019-03-22T15:16:32.014Z,1484.00
2019-03-22T15:19:28.092Z,1444.00
2019-03-22T15:22:03.109Z,1420.00
2019-03-22T15:26:34.050Z,1368.00
2019-03-22T15:29:25.473Z,1332.00
2019-03-22T15:30:25.200Z,1316.00
2019-03-22T15:32:58.539Z,1284.00